Etusivu
METAR-TAF:

METAR-TAF

Lentoasemat :

Tomahawk Regional Airport

Tomahawk, Wisconsin, Yhdysvallat

Leveyspiiri: 45-28-08N, Pituuspiiri: 089-48-20W, korkeus merenpinnasta: 453 m

Tämänhetkinen sää

Tämä raportti tehtiin 6 minuuttia sitten, kello 09.55 UTC
Tuuli 4 kn etelästä/kaakosta
Lämpötila 0°C
Kosteus 74%
Ilmanpaine 1015 hPa
Näkyvyys: 11.3 km
Pilvistä 9000 ft:n korkeudessa

METAR: KTKV 170955Z AUTO 16004KT 7SM OVC090 00/M04 A2996 RMK AO2 T10051037

Aika: 04:01 (10:01 UTC)


TAF: puuttuu

Säähavainnot ja -ennusteet yli 4000 lentoasemalta (METAR- ja TAF-raportit).

Käytössä olevat sääasemat on merkitty karttaan keltaisilla ja punaisilla pisteillä.

Aseta hiiri pisteen päälle nähdäksesi sääaseman nimen.

Klikkaa sitten nähdäksesi säähavainnot ja -ennusteet.

Kartan vaihtaminen: klikkaa mustalla rastilla varustettuja vihreitä pisteitä, niin voit zoomata sisään; viivalla varustettua vihreää pistettä, niin voit zoomata ulos tai vihreitä nuolia, niin pääset viereisille kartoille.


METAR-TAF: